Ocean Honey — VRDL3 — position and weather

sailwx.info

Track history (hours):
 
Tides and Currents Weather Stations Pressure Air Temp Water Temp Dewpoint Dewpoint Depression Visibility Wind Speed Wind Dir Waves Ship Positions

Ocean Honey

Last reported at 2015-Feb-27 05:29 UTC. Time now 2015-Feb-27 13:10 UTC.
Position N 35°36' E 119°47'.

Length 167 m; draft 10.3 m.

Type: Cargo ship. MMSI: 477003100.

Date/timePositionNaut miles runAvg speedWind from/ knotsBaromVisibWave heightAir tempDewpointWater temp
2015-Feb-27 05:29N 35°36' E 119°47'0 0.0
2015-Feb-27 02:11N 35°36' E 119°47'0 0.0
2015-Feb-26 18:11N 35°36' E 119°47'0 0.0
2015-Feb-26 12:04N 35°36' E 119°47'0 0.1
2015-Feb-26 09:31N 35°36' E 119°47'6 6.5
2015-Feb-26 08:32N 35°30' E 119°50'3 0.3
2015-Feb-25 23:22N 35°28' E 119°52'0 0.0
2015-Feb-25 18:04N 35°28' E 119°52'0 0.1
2015-Feb-25 17:10N 35°28' E 119°52'0 0.2
2015-Feb-25 16:28N 35°28' E 119°52'0 0.1
2015-Feb-25 15:16N 35°28' E 119°52'0 0.1
2015-Feb-25 14:22N 35°28' E 119°52'0 0.0
2015-Feb-25 13:16N 35°28' E 119°52'0 0.1
2015-Feb-25 12:22N 35°28' E 119°52'0 0.1
2015-Feb-25 11:22N 35°28' E 119°52'0 0.1
2015-Feb-25 08:28N 35°28' E 119°52'0 0.0
2015-Feb-25 05:28N 35°28' E 119°52'0 0.1
2015-Feb-25 01:04N 35°28' E 119°52'0 0.1
2015-Feb-25 00:23N 35°28' E 119°52'3 3.3
2015-Feb-24 23:29N 35°25' E 119°53'5 5.4
2015-Feb-24 22:33N 35°20' E 119°54'6 6.0
2015-Feb-24 21:30N 35°17' E 120°00'  
Track history (hours):
 
Tides and Currents Weather Stations Pressure Air Temp Water Temp Dewpoint Dewpoint Depression Visibility Wind Speed Wind Dir Waves Ship Positions

Ocean Honey

Last reported at 2015-Feb-27 05:29 UTC. Time now 2015-Feb-27 13:10 UTC.
Position N 35°36' E 119°47'.

Length 167 m; draft 10.3 m.

Type: Cargo ship. MMSI: 477003100.

Date/timePositionNaut miles runAvg speedWind from/ knotsBaromVisibWave heightAir tempDewpointWater temp
2015-Feb-27 05:29N 35°36' E 119°47'0 0.0
2015-Feb-27 02:11N 35°36' E 119°47'0 0.0
2015-Feb-26 18:11N 35°36' E 119°47'0 0.0
2015-Feb-26 12:04N 35°36' E 119°47'0 0.1
2015-Feb-26 09:31N 35°36' E 119°47'6 6.5
2015-Feb-26 08:32N 35°30' E 119°50'3 0.3
2015-Feb-25 23:22N 35°28' E 119°52'0 0.0
2015-Feb-25 18:04N 35°28' E 119°52'0 0.1
2015-Feb-25 17:10N 35°28' E 119°52'0 0.2
2015-Feb-25 16:28N 35°28' E 119°52'0 0.1
2015-Feb-25 15:16N 35°28' E 119°52'0 0.1
2015-Feb-25 14:22N 35°28' E 119°52'0 0.0
2015-Feb-25 13:16N 35°28' E 119°52'0 0.1
2015-Feb-25 12:22N 35°28' E 119°52'0 0.1
2015-Feb-25 11:22N 35°28' E 119°52'0 0.1
2015-Feb-25 08:28N 35°28' E 119°52'0 0.0
2015-Feb-25 05:28N 35°28' E 119°52'0 0.1
2015-Feb-25 01:04N 35°28' E 119°52'0 0.1
2015-Feb-25 00:23N 35°28' E 119°52'3 3.3
2015-Feb-24 23:29N 35°25' E 119°53'5 5.4
2015-Feb-24 22:33N 35°20' E 119°54'6 6.0
2015-Feb-24 21:30N 35°17' E 120°00'  

Dump ship's entire track history